»·PEaware :: N62DM KBZN-KIDA

N62DM :: KBZN-KIDA

FLIGHT INFORMATION

Flight Status: Arrived
Operator: Privately registered:
United States
More flights under this callsign
Pilot: Jan K. (187)
Aircraft: Unknown
(DA62)
More flights by this aircraft type
Origin: KBZN Gallatin
United States
Destination: KIDA Idaho Falls Regl
United States
More flights between these airports :: More routes between these airports
Route: BZN V343 DBS V21 IDA
File this flight plan on PilotEdge
Remarks:
Altitude:
(Current/Filed)
16,000ft
Speed:
(Current/Filed)
200kts
Departed: 10-Jan-19 08:02 AM
Arrived: 10-Jan-19 09:08 AM
Distance/Time
Traveled:
141nm/1:06
Distance/Time
To Go:
Arrived

Flight Plot

Page will automatically refresh every two minutes.

Flight plan parsing failed; only flown route is shown


Map Options




Map Legend


Flown Route
Filed Route
Departure Airport
Arrival Airport
Navaid (VOR, NDB)
Fix

Horizontal Profiles

Position Reports

Time Latitude Longitude Heading Altitude Ground
Speed
10-Jan-19 07:46 45.773974 -111.152612 135 4474ft 0kts
10-Jan-19 07:47 45.773974 -111.152612 135 4474ft 0kts
10-Jan-19 07:48 45.773974 -111.152612 135 4474ft 0kts
10-Jan-19 07:49 45.773974 -111.152612 135 4474ft 0kts
10-Jan-19 07:50 45.773974 -111.152612 135 4474ft 0kts
10-Jan-19 07:51 45.773974 -111.152612 135 4474ft 0kts
10-Jan-19 07:52 45.773974 -111.152612 135 4474ft 0kts
10-Jan-19 07:53 45.773969 -111.152605 135 4474ft 0kts
10-Jan-19 07:54 45.773959 -111.152590 133 4474ft 0kts
10-Jan-19 07:55 45.773779 -111.151281 47 4474ft 3kts
10-Jan-19 07:56 45.774086 -111.151117 319 4474ft 0kts
10-Jan-19 07:57 45.776769 -111.154857 315 4475ft 38kts
10-Jan-19 07:58 45.782907 -111.163388 315 4474ft 30kts
10-Jan-19 07:59 45.787344 -111.167363 48 4474ft 14kts
10-Jan-19 08:00 45.786967 -111.164935 135 4474ft 0kts
10-Jan-19 08:01 45.777890 -111.151280 134 4687ft 92kts
10-Jan-19 08:02 45.762885 -111.154599 266 5648ft 96kts
10-Jan-19 08:03 45.762572 -111.193473 266 6903ft 95kts
10-Jan-19 08:04 45.749384 -111.225804 235 8163ft 95kts
10-Jan-19 08:05 45.734173 -111.256940 235 9438ft 95kts
10-Jan-19 08:06 45.718975 -111.287993 237 10735ft 94kts
10-Jan-19 08:07 45.703837 -111.318878 240 12060ft 94kts
10-Jan-19 08:08 45.688810 -111.349604 240 13380ft 94kts
10-Jan-19 08:09 45.673541 -111.380695 239 14657ft 95kts
10-Jan-19 08:10 45.658198 -111.411964 239 15848ft 96kts
10-Jan-19 08:11 45.637919 -111.453293 237 16019ft 156kts
10-Jan-19 08:12 45.656060 -111.494587 12 16017ft 202kts
10-Jan-19 08:13 45.687889 -111.424964 64 16009ft 219kts
10-Jan-19 08:14 45.715833 -111.347357 62 16003ft 220kts
10-Jan-19 08:15 45.730310 -111.265153 111 16006ft 217kts
10-Jan-19 08:16 45.686150 -111.223084 189 16010ft 192kts
10-Jan-19 08:17 45.637777 -111.249013 209 16009ft 185kts
10-Jan-19 08:18 45.590645 -111.279092 209 16009ft 185kts
10-Jan-19 08:19 45.543362 -111.309220 208 16009ft 186kts
10-Jan-19 08:20 45.496109 -111.339289 208 16009ft 186kts
10-Jan-19 08:21 45.448857 -111.369237 208 16017ft 186kts
10-Jan-19 08:22 45.401528 -111.399209 208 16021ft 186kts
10-Jan-19 08:23 45.354323 -111.429061 208 16026ft 185kts
10-Jan-19 08:24 45.307025 -111.458905 208 16028ft 185kts
10-Jan-19 08:25 45.259805 -111.488616 208 16032ft 185kts
10-Jan-19 08:26 45.212525 -111.518378 208 16033ft 185kts
10-Jan-19 08:27 45.165411 -111.547909 208 16033ft 185kts
10-Jan-19 08:28 45.118126 -111.577546 208 16033ft 185kts
10-Jan-19 08:29 45.070970 -111.606980 208 16033ft 185kts
10-Jan-19 08:30 45.023617 -111.636610 207 16033ft 185kts
10-Jan-19 08:31 44.976464 -111.665966 207 16034ft 185kts
10-Jan-19 08:32 44.929448 -111.695275 208 16033ft 184kts
10-Jan-19 08:33 44.882408 -111.724475 207 16033ft 184kts
10-Jan-19 08:34 44.835353 -111.753568 207 16033ft 185kts
10-Jan-19 08:35 44.788252 -111.782678 207 16033ft 184kts
10-Jan-19 08:36 44.741123 -111.811798 207 16033ft 184kts
10-Jan-19 08:37 44.694206 -111.840646 207 16033ft 184kts
10-Jan-19 08:38 44.647240 -111.869638 207 16033ft 184kts
10-Jan-19 08:39 44.600132 -111.898546 206 16033ft 185kts
10-Jan-19 08:40 44.553045 -111.927427 207 16043ft 184kts
10-Jan-19 08:41 44.505915 -111.956240 206 16043ft 184kts
10-Jan-19 08:42 44.458983 -111.984894 206 16044ft 184kts
10-Jan-19 08:43 44.411828 -112.013643 206 16048ft 185kts
10-Jan-19 08:44 44.364512 -112.042458 206 16048ft 185kts
10-Jan-19 08:45 44.316055 -112.029124 151 16002ft 194kts
10-Jan-19 08:46 44.272771 -111.989358 152 15496ft 181kts
10-Jan-19 08:47 44.229718 -111.950625 151 14755ft 186kts
10-Jan-19 08:48 44.185445 -111.912457 151 13959ft 187kts
10-Jan-19 08:49 44.140734 -111.875093 151 13157ft 186kts
10-Jan-19 08:50 44.095747 -111.838571 152 12229ft 187kts
10-Jan-19 08:51 44.050774 -111.803348 151 11230ft 184kts
10-Jan-19 08:52 44.006284 -111.769018 151 10230ft 181kts
10-Jan-19 08:53 43.962604 -111.735681 151 9231ft 177kts
10-Jan-19 08:54 43.921043 -111.723810 200 8993ft 147kts
10-Jan-19 08:55 43.884932 -111.744424 200 8988ft 139kts
10-Jan-19 08:56 43.848184 -111.766658 201 8996ft 147kts
10-Jan-19 08:57 43.810380 -111.789223 201 8997ft 148kts
10-Jan-19 08:58 43.772269 -111.811947 201 8998ft 149kts
10-Jan-19 08:59 43.734631 -111.836341 210 8998ft 150kts
10-Jan-19 09:00 43.701558 -111.870636 217 8891ft 155kts
10-Jan-19 09:01 43.668658 -111.906218 216 8285ft 145kts
10-Jan-19 09:02 43.636994 -111.940431 217 7583ft 143kts
10-Jan-19 09:03 43.606364 -111.973407 217 6858ft 127kts
10-Jan-19 09:04 43.579771 -112.001826 216 6236ft 119kts
10-Jan-19 09:05 43.555052 -112.028699 216 5594ft 103kts
10-Jan-19 09:06 43.533225 -112.052101 216 5068ft 99kts
10-Jan-19 09:07 43.514362 -112.072349 213 4744ft 36kts
10-Jan-19 09:08 43.509295 -112.076218 96 4743ft 6kts
10-Jan-19 09:09 43.510791 -112.074400 38 4743ft 16kts
10-Jan-19 09:10 43.511995 -112.071606 31 4743ft 0kts

Navigation Log

Ident Type
Flight plan parsing failed, navigation log unavailable